Terminal Aerodrome Forecast
Issued by NWS

Home | Current Version | Previous Version | Text Only | Print | Product List | Glossary On
Versions: 1 2 3 4 5 6 7 8 9 10 11 12 13
000
FTUS45 KRIW 280521
TAFBPI
TAF
KBPI 280521Z 2806/2906 VRB06KT P6SM SKC
     FM282000 19011KT P6SM FEW200
     FM290200 VRB06KT P6SM SCT120 BKN200=

USA.gov is the U.S. government's official web portal to all federal, state and local government web resources and services.